createdAt,value
2018-05-07T00:00:12.325Z,16.64
2018-05-07T00:01:13.258Z,16.58
2018-05-07T00:02:13.796Z,16.56
2018-05-07T00:03:14.521Z,16.47
2018-05-07T00:04:15.245Z,16.57
2018-05-07T00:05:15.974Z,16.50
2018-05-07T00:06:16.816Z,16.43
2018-05-07T00:07:17.445Z,16.35
2018-05-07T00:08:18.161Z,16.38
2018-05-07T00:09:18.886Z,16.35
2018-05-07T00:10:19.633Z,16.35
2018-05-07T00:11:20.357Z,16.36
2018-05-07T00:12:21.081Z,16.33
2018-05-07T00:13:21.816Z,16.29
2018-05-07T00:14:22.538Z,16.31
2018-05-07T00:15:23.260Z,16.23
2018-05-07T00:16:24.009Z,16.20
2018-05-07T00:17:24.733Z,16.23
2018-05-07T00:18:25.469Z,16.26
2018-05-07T00:19:26.193Z,16.17
2018-05-07T00:20:26.928Z,16.12
2018-05-07T00:21:27.651Z,16.17
2018-05-07T00:22:28.473Z,16.21
2018-05-07T00:23:29.109Z,16.09
2018-05-07T00:24:29.833Z,16.10
2018-05-07T00:25:30.579Z,16.10
2018-05-07T00:26:31.308Z,16.05
2018-05-07T00:27:32.067Z,16.05
2018-05-07T00:28:32.823Z,16.02
2018-05-07T00:29:33.549Z,16.09
2018-05-07T00:30:34.280Z,15.91
2018-05-07T00:31:35.004Z,15.98
2018-05-07T00:32:35.728Z,15.95
2018-05-07T00:33:36.449Z,15.94
2018-05-07T00:34:37.170Z,15.97
2018-05-07T00:35:37.893Z,15.94
2018-05-07T00:36:38.652Z,15.95
2018-05-07T00:37:39.385Z,15.90
2018-05-07T00:38:40.109Z,15.92
2018-05-07T00:39:40.858Z,15.77
2018-05-07T00:40:41.581Z,15.76
2018-05-07T00:41:42.305Z,15.79
2018-05-07T00:42:43.027Z,15.86
2018-05-07T00:43:43.751Z,15.82
2018-05-07T00:44:44.473Z,15.75
2018-05-07T00:45:45.197Z,15.75
2018-05-07T00:46:45.920Z,15.76
2018-05-07T00:47:46.644Z,15.67
2018-05-07T00:48:47.367Z,15.72
2018-05-07T00:49:48.101Z,15.70
2018-05-07T00:50:48.826Z,15.65
2018-05-07T00:51:49.548Z,15.62
2018-05-07T00:52:50.270Z,15.65
2018-05-07T00:53:50.995Z,15.67
2018-05-07T00:54:51.720Z,15.59
2018-05-07T00:55:52.468Z,15.61
2018-05-07T00:56:53.189Z,15.57
2018-05-07T00:57:53.914Z,15.54
2018-05-07T00:58:54.659Z,15.52
2018-05-07T00:59:55.384Z,15.52
2018-05-07T01:00:56.095Z,15.46
2018-05-07T01:01:56.821Z,15.46
2018-05-07T01:02:57.533Z,15.43
2018-05-07T01:03:58.244Z,15.46
2018-05-07T01:04:58.990Z,15.37
2018-05-07T01:05:59.669Z,15.42
2018-05-07T01:07:00.383Z,15.40
2018-05-07T01:08:01.096Z,15.47
2018-05-07T01:09:01.824Z,15.42
2018-05-07T01:10:02.543Z,15.42
2018-05-07T01:11:03.269Z,15.33
2018-05-07T01:12:03.982Z,15.27
2018-05-07T01:13:04.708Z,15.28
2018-05-07T01:14:05.419Z,15.35
2018-05-07T01:15:06.131Z,15.35
2018-05-07T01:16:06.845Z,15.28
2018-05-07T01:17:07.554Z,15.21
2018-05-07T01:18:08.269Z,15.19
2018-05-07T01:19:08.977Z,15.28
2018-05-07T01:20:09.692Z,15.22
2018-05-07T01:21:10.403Z,15.21
2018-05-07T01:22:11.126Z,15.18
2018-05-07T01:23:11.849Z,15.14
2018-05-07T01:24:12.562Z,15.10
2018-05-07T01:25:13.274Z,15.18
2018-05-07T01:26:13.985Z,15.15
2018-05-07T01:27:14.698Z,15.03
2018-05-07T01:28:15.410Z,15.07
2018-05-07T01:29:16.136Z,15.07
2018-05-07T01:30:16.847Z,15.07
2018-05-07T01:31:17.559Z,15.06
2018-05-07T01:32:18.271Z,15.11
2018-05-07T01:33:18.982Z,14.96
2018-05-07T01:34:19.694Z,14.92
2018-05-07T01:35:20.421Z,14.94
2018-05-07T01:36:21.137Z,14.96
2018-05-07T01:37:21.851Z,14.96
2018-05-07T01:38:22.575Z,14.89
2018-05-07T01:39:23.287Z,14.82
2018-05-07T01:40:24.014Z,14.97
2018-05-07T01:41:24.738Z,14.91
2018-05-07T01:42:25.450Z,14.86
2018-05-07T01:43:26.164Z,14.78
2018-05-07T01:44:26.877Z,14.78
2018-05-07T01:45:27.589Z,14.79
2018-05-07T01:46:28.301Z,14.81
2018-05-07T01:47:29.029Z,14.84
2018-05-07T01:48:29.741Z,14.82
2018-05-07T01:49:30.455Z,14.72
2018-05-07T01:50:31.169Z,14.68
2018-05-07T01:51:31.882Z,14.66
2018-05-07T01:52:32.609Z,14.79
2018-05-07T01:53:33.322Z,14.72
2018-05-07T01:54:34.033Z,14.59
2018-05-07T01:55:34.745Z,14.68
2018-05-07T01:56:35.459Z,14.68
2018-05-07T01:57:36.180Z,14.66
2018-05-07T01:58:36.882Z,14.59
2018-05-07T01:59:37.592Z,14.60
2018-05-07T02:00:38.305Z,14.55
2018-05-07T02:01:39.031Z,14.51
2018-05-07T02:02:39.743Z,14.47
2018-05-07T02:03:40.468Z,14.53
2018-05-07T02:04:41.178Z,14.51
2018-05-07T02:05:41.903Z,14.58
2018-05-07T02:06:42.616Z,14.53
2018-05-07T02:07:43.329Z,14.47
2018-05-07T02:08:44.046Z,14.40
2018-05-07T02:09:44.756Z,14.45
2018-05-07T02:10:45.471Z,14.41
2018-05-07T02:11:46.184Z,14.43
2018-05-07T02:12:46.898Z,14.36
2018-05-07T02:13:47.623Z,14.36
2018-05-07T02:14:48.335Z,14.32
2018-05-07T02:15:49.045Z,14.26
2018-05-07T02:16:49.771Z,14.29
2018-05-07T02:17:50.484Z,14.23
2018-05-07T02:18:51.196Z,14.29
2018-05-07T02:19:51.921Z,14.15
2018-05-07T02:20:52.631Z,14.17
2018-05-07T02:21:53.345Z,14.08
2018-05-07T02:22:54.059Z,14.12
2018-05-07T02:23:54.771Z,14.12
2018-05-07T02:24:55.485Z,14.03
2018-05-07T02:25:56.210Z,14.11
2018-05-07T02:26:56.926Z,14.04
2018-05-07T02:27:57.640Z,13.90
2018-05-07T02:28:58.354Z,13.90
2018-05-07T02:29:59.065Z,13.86
2018-05-07T02:30:59.791Z,13.81
2018-05-07T02:32:00.504Z,13.77
2018-05-07T02:33:01.217Z,13.75
2018-05-07T02:34:01.926Z,13.74
2018-05-07T02:35:02.650Z,13.72
2018-05-07T02:36:03.362Z,13.70
2018-05-07T02:37:04.075Z,13.62
2018-05-07T02:38:04.790Z,13.59
2018-05-07T02:39:05.521Z,13.65
2018-05-07T02:40:06.223Z,13.68
2018-05-07T02:41:06.935Z,13.71
2018-05-07T02:42:07.647Z,13.77
2018-05-07T02:43:08.360Z,13.72
2018-05-07T02:44:09.070Z,13.72
2018-05-07T02:45:09.784Z,13.68
2018-05-07T02:46:10.496Z,13.81
2018-05-07T02:47:11.235Z,13.78
2018-05-07T02:48:11.937Z,13.75
2018-05-07T02:49:12.650Z,13.70
2018-05-07T02:50:13.365Z,13.70
2018-05-07T02:51:14.078Z,13.74
2018-05-07T02:52:14.791Z,13.74
2018-05-07T02:53:15.503Z,13.72
2018-05-07T02:54:16.216Z,13.77
2018-05-07T02:55:16.929Z,13.75
2018-05-07T02:56:17.643Z,13.74
2018-05-07T02:57:18.357Z,13.72
2018-05-07T02:58:19.081Z,13.74
2018-05-07T02:59:19.797Z,13.78
2018-05-07T03:00:20.504Z,13.79
2018-05-07T03:01:21.216Z,13.75
2018-05-07T03:02:21.924Z,13.77
2018-05-07T03:03:22.638Z,13.78
2018-05-07T03:04:23.462Z,13.72
2018-05-07T03:05:24.077Z,13.75
2018-05-07T03:06:24.786Z,13.74
2018-05-07T03:07:25.500Z,13.68
2018-05-07T03:08:26.221Z,13.62
2018-05-07T03:09:26.931Z,13.60
2018-05-07T03:10:27.643Z,13.63
2018-05-07T03:11:28.356Z,13.67
2018-05-07T03:12:29.067Z,13.74
2018-05-07T03:13:29.779Z,13.62
2018-05-07T03:14:30.491Z,13.68
2018-05-07T03:15:31.202Z,13.65
2018-05-07T03:16:31.915Z,13.67
2018-05-07T03:17:32.722Z,13.68
2018-05-07T03:18:33.344Z,13.63
2018-05-07T03:19:34.069Z,13.63
2018-05-07T03:20:34.776Z,13.59
2018-05-07T03:21:35.488Z,13.60
2018-05-07T03:22:36.200Z,13.60
2018-05-07T03:23:36.911Z,13.67
2018-05-07T03:24:37.622Z,13.60
2018-05-07T03:25:38.334Z,13.52
2018-05-07T03:26:39.048Z,13.71
2018-05-07T03:27:39.760Z,13.62
2018-05-07T03:28:40.472Z,13.71
2018-05-07T03:29:41.185Z,13.60
2018-05-07T03:30:41.898Z,13.53
2018-05-07T03:31:42.610Z,13.49
2018-05-07T03:32:43.323Z,13.59
2018-05-07T03:33:44.038Z,13.50
2018-05-07T03:34:44.749Z,13.54
2018-05-07T03:35:45.462Z,13.46
2018-05-07T03:36:46.189Z,13.53
2018-05-07T03:37:46.905Z,13.42
2018-05-07T03:38:47.618Z,13.52
2018-05-07T03:39:48.343Z,13.47
2018-05-07T03:40:49.054Z,13.39
2018-05-07T03:41:49.777Z,13.46
2018-05-07T03:42:50.490Z,13.50
2018-05-07T03:43:51.203Z,13.41
2018-05-07T03:44:51.918Z,13.35
2018-05-07T03:45:52.643Z,13.28
2018-05-07T03:46:53.357Z,13.37
2018-05-07T03:47:54.074Z,13.37
2018-05-07T03:48:54.793Z,13.41
2018-05-07T03:49:55.503Z,13.30
2018-05-07T03:50:56.217Z,13.25
2018-05-07T03:51:56.929Z,13.28
2018-05-07T03:52:57.645Z,13.37
2018-05-07T03:53:58.371Z,13.31
2018-05-07T03:54:59.085Z,13.27
2018-05-07T03:55:59.799Z,13.28
2018-05-07T03:57:00.513Z,13.37
2018-05-07T03:58:01.227Z,13.42
2018-05-07T03:59:01.941Z,13.37
2018-05-07T04:00:02.656Z,13.31
2018-05-07T04:01:03.382Z,13.27
2018-05-07T04:02:04.113Z,13.27
2018-05-07T04:03:04.824Z,13.28
2018-05-07T04:04:05.553Z,13.27
2018-05-07T04:05:06.267Z,13.23
2018-05-07T04:06:06.983Z,13.27
2018-05-07T04:07:07.700Z,13.28
2018-05-07T04:08:08.428Z,13.28
2018-05-07T04:09:09.143Z,13.25
2018-05-07T04:10:09.858Z,13.20
2018-05-07T04:11:10.584Z,13.27
2018-05-07T04:12:11.301Z,13.33
2018-05-07T04:13:12.042Z,13.23
2018-05-07T04:14:12.733Z,13.35
2018-05-07T04:15:13.449Z,13.25
2018-05-07T04:16:14.163Z,13.25
2018-05-07T04:17:14.879Z,13.31
2018-05-07T04:18:15.605Z,13.31
2018-05-07T04:19:16.321Z,13.38
2018-05-07T04:20:17.040Z,13.30
2018-05-07T04:21:17.765Z,13.33
2018-05-07T04:22:18.486Z,13.39
2018-05-07T04:23:19.195Z,13.25
2018-05-07T04:24:19.921Z,13.39
2018-05-07T04:25:20.650Z,13.25
2018-05-07T04:26:21.368Z,13.38
2018-05-07T04:27:22.102Z,13.31
2018-05-07T04:28:22.815Z,13.35
2018-05-07T04:29:23.531Z,13.42
2018-05-07T04:30:24.247Z,13.39
2018-05-07T04:31:24.962Z,13.39
2018-05-07T04:32:25.674Z,13.31
2018-05-07T04:33:26.389Z,13.44
2018-05-07T04:34:27.105Z,13.47
2018-05-07T04:35:27.823Z,13.44
2018-05-07T04:36:28.551Z,13.44
2018-05-07T04:37:29.268Z,13.42
2018-05-07T04:38:29.983Z,13.39
2018-05-07T04:39:30.699Z,13.38
2018-05-07T04:40:31.414Z,13.57
2018-05-07T04:41:32.145Z,13.49
2018-05-07T04:42:32.862Z,13.47
2018-05-07T04:43:33.580Z,13.59
2018-05-07T04:44:34.296Z,13.62
2018-05-07T04:45:35.017Z,13.67
2018-05-07T04:46:35.729Z,13.75
2018-05-07T04:47:36.451Z,13.68
2018-05-07T04:48:37.177Z,13.77
2018-05-07T04:49:37.893Z,13.78
2018-05-07T04:50:38.608Z,13.75
2018-05-07T04:51:39.326Z,13.83
2018-05-07T04:52:40.053Z,13.79
2018-05-07T04:53:40.773Z,13.83
2018-05-07T04:54:41.485Z,13.86
2018-05-07T04:55:42.216Z,13.96
2018-05-07T04:56:42.932Z,13.95
2018-05-07T04:57:43.649Z,14.04
2018-05-07T04:58:44.368Z,14.05
2018-05-07T04:59:45.086Z,13.92
2018-05-07T05:00:45.804Z,14.05
2018-05-07T05:01:46.534Z,14.05
2018-05-07T05:02:47.260Z,14.04
2018-05-07T05:03:47.977Z,14.07
2018-05-07T05:04:48.694Z,14.08
2018-05-07T05:05:49.411Z,14.17
2018-05-07T05:06:50.127Z,14.23
2018-05-07T05:07:50.845Z,14.28
2018-05-07T05:08:51.562Z,14.26
2018-05-07T05:09:52.292Z,14.30
2018-05-07T05:10:53.008Z,14.25
2018-05-07T05:11:53.724Z,14.37
2018-05-07T05:12:54.440Z,14.44
2018-05-07T05:13:55.173Z,14.41
2018-05-07T05:14:55.888Z,14.45
2018-05-07T05:15:56.604Z,14.48
2018-05-07T05:16:57.334Z,14.48
2018-05-07T05:17:58.065Z,14.51
2018-05-07T05:18:58.829Z,14.53
2018-05-07T05:19:59.503Z,14.62
2018-05-07T05:21:00.266Z,14.63
2018-05-07T05:22:00.931Z,14.62
2018-05-07T05:23:01.648Z,14.66
2018-05-07T05:24:02.365Z,14.77
2018-05-07T05:25:03.082Z,14.72
2018-05-07T05:26:03.799Z,14.73
2018-05-07T05:27:04.516Z,14.77
2018-05-07T05:28:05.249Z,14.73
2018-05-07T05:29:05.979Z,14.82
2018-05-07T05:30:06.694Z,14.85
2018-05-07T05:31:07.425Z,14.94
2018-05-07T05:32:08.142Z,14.86
2018-05-07T05:33:08.863Z,14.96
2018-05-07T05:34:09.589Z,15.00
2018-05-07T05:35:10.306Z,15.06
2018-05-07T05:36:11.022Z,15.04
2018-05-07T05:37:11.750Z,15.03
2018-05-07T05:38:12.469Z,15.15
2018-05-07T05:39:13.190Z,15.10
2018-05-07T05:40:13.903Z,15.11
2018-05-07T05:41:14.620Z,15.21
2018-05-07T05:42:15.364Z,15.22
2018-05-07T05:43:16.056Z,15.27
2018-05-07T05:44:16.775Z,15.37
2018-05-07T05:45:17.493Z,15.29
2018-05-07T05:46:18.214Z,15.39
2018-05-07T05:47:18.929Z,15.40
2018-05-07T05:48:19.653Z,15.29
2018-05-07T05:49:20.383Z,15.49
2018-05-07T05:50:21.128Z,15.51
2018-05-07T05:51:21.828Z,15.55
2018-05-07T05:52:22.549Z,15.59
2018-05-07T05:53:23.278Z,15.52
2018-05-07T05:54:23.995Z,15.64
2018-05-07T05:55:24.720Z,15.64
2018-05-07T05:56:25.512Z,15.73
2018-05-07T05:57:26.153Z,15.76
2018-05-07T05:58:26.871Z,15.84
2018-05-07T05:59:27.585Z,15.84
2018-05-07T06:00:28.306Z,15.80
2018-05-07T06:01:29.034Z,15.80
2018-05-07T06:02:29.750Z,15.83
2018-05-07T06:03:30.480Z,15.82
2018-05-07T06:04:31.194Z,15.84
2018-05-07T06:05:31.909Z,15.86
2018-05-07T06:06:32.626Z,15.98
2018-05-07T06:07:33.343Z,15.98
2018-05-07T06:08:34.060Z,16.02
2018-05-07T06:09:34.780Z,16.15
2018-05-07T06:10:35.512Z,16.20
2018-05-07T06:11:36.239Z,16.23
2018-05-07T06:12:36.957Z,16.32
2018-05-07T06:13:37.675Z,16.33
2018-05-07T06:14:38.475Z,16.41
2018-05-07T06:15:39.121Z,16.39
2018-05-07T06:16:39.838Z,16.46
2018-05-07T06:17:40.566Z,16.54
2018-05-07T06:18:41.297Z,16.51
2018-05-07T06:19:42.013Z,16.54
2018-05-07T06:20:42.742Z,16.57
2018-05-07T06:21:43.460Z,16.57
2018-05-07T06:22:44.196Z,16.54
2018-05-07T06:23:44.922Z,16.57
2018-05-07T06:24:45.639Z,16.65
2018-05-07T06:25:46.356Z,16.66
2018-05-07T06:26:47.072Z,16.71
2018-05-07T06:27:47.789Z,16.79
2018-05-07T06:28:48.518Z,16.87
2018-05-07T06:29:49.234Z,16.93
2018-05-07T06:30:49.968Z,17.01
2018-05-07T06:31:50.680Z,17.02
2018-05-07T06:32:51.397Z,17.04
2018-05-07T06:33:52.117Z,16.93
2018-05-07T06:34:52.834Z,16.97
2018-05-07T06:35:53.563Z,17.02
2018-05-07T06:36:54.281Z,17.08
2018-05-07T06:37:54.999Z,17.16
2018-05-07T06:38:55.718Z,17.12
2018-05-07T06:39:56.436Z,17.20
2018-05-07T06:40:57.154Z,17.20
2018-05-07T06:41:57.872Z,17.39
2018-05-07T06:42:58.592Z,17.39
2018-05-07T06:43:59.319Z,17.39
2018-05-07T06:45:00.037Z,17.41
2018-05-07T06:46:00.833Z,17.42
2018-05-07T06:47:01.475Z,17.36
2018-05-07T06:48:02.203Z,17.42
2018-05-07T06:49:02.923Z,17.42
2018-05-07T06:50:03.654Z,17.41
2018-05-07T06:51:04.373Z,17.46
2018-05-07T06:52:05.130Z,17.56
2018-05-07T06:53:05.824Z,17.72
2018-05-07T06:54:06.542Z,17.78
2018-05-07T06:55:07.259Z,17.79
2018-05-07T06:56:07.978Z,17.87
2018-05-07T06:57:08.711Z,17.85
2018-05-07T06:58:09.430Z,17.95
2018-05-07T06:59:10.151Z,18.03
2018-05-07T07:00:10.874Z,18.10
2018-05-07T07:01:11.588Z,18.11
2018-05-07T07:02:12.375Z,18.15
2018-05-07T07:03:13.024Z,18.20
2018-05-07T07:04:13.744Z,18.23
2018-05-07T07:05:14.465Z,18.28
2018-05-07T07:06:15.195Z,18.29
2018-05-07T07:07:15.927Z,18.28
2018-05-07T07:08:16.734Z,18.19
2018-05-07T07:09:17.364Z,18.26
2018-05-07T07:10:18.084Z,18.33
2018-05-07T07:11:18.817Z,18.28
2018-05-07T07:12:19.536Z,18.38
2018-05-07T07:13:20.271Z,18.52
2018-05-07T07:14:20.985Z,18.50
2018-05-07T07:15:21.703Z,18.53
2018-05-07T07:16:22.460Z,18.66
2018-05-07T07:17:23.144Z,18.68
2018-05-07T07:18:23.864Z,18.74
2018-05-07T07:19:24.582Z,18.75
2018-05-07T07:20:25.302Z,18.70
2018-05-07T07:21:26.033Z,18.75
2018-05-07T07:22:26.767Z,18.80
2018-05-07T07:23:27.484Z,18.80
2018-05-07T07:24:28.214Z,18.68
2018-05-07T07:25:28.945Z,18.77
2018-05-07T07:26:29.664Z,18.71
2018-05-07T07:27:30.383Z,18.74
2018-05-07T07:28:31.101Z,18.80
2018-05-07T07:29:31.823Z,18.77
2018-05-07T07:30:32.557Z,18.90
2018-05-07T07:31:33.279Z,19.00
2018-05-07T07:32:34.002Z,19.09
2018-05-07T07:33:34.732Z,19.18
2018-05-07T07:34:35.466Z,19.19
2018-05-07T07:35:36.188Z,19.31
2018-05-07T07:36:36.904Z,19.26
2018-05-07T07:37:37.634Z,19.45
2018-05-07T07:38:38.363Z,19.52
2018-05-07T07:39:39.079Z,19.54
2018-05-07T07:40:39.813Z,19.66
2018-05-07T07:41:40.576Z,19.47
2018-05-07T07:42:41.256Z,19.63
2018-05-07T07:43:41.970Z,19.66
2018-05-07T07:44:42.689Z,19.74
2018-05-07T07:45:43.409Z,19.89
2018-05-07T07:46:44.130Z,19.85
2018-05-07T07:47:44.855Z,19.79
2018-05-07T07:48:45.576Z,19.88
2018-05-07T07:49:46.292Z,19.92
2018-05-07T07:50:47.013Z,19.88
2018-05-07T07:51:47.735Z,20.06
2018-05-07T07:52:48.456Z,20.19
2018-05-07T07:53:49.210Z,20.26
2018-05-07T07:54:49.907Z,20.32
2018-05-07T07:55:50.625Z,20.36
2018-05-07T07:56:51.345Z,20.50
2018-05-07T07:57:52.065Z,20.40
2018-05-07T07:58:52.785Z,20.59
2018-05-07T07:59:53.504Z,20.60
2018-05-07T08:00:54.229Z,20.77
2018-05-07T08:01:54.962Z,20.84
2018-05-07T08:02:55.687Z,20.82
2018-05-07T08:03:56.418Z,20.97
2018-05-07T08:04:57.136Z,20.78
2018-05-07T08:05:57.868Z,20.84
2018-05-07T08:06:58.589Z,20.77
2018-05-07T08:07:59.312Z,20.60
2018-05-07T08:09:00.043Z,20.80
2018-05-07T08:10:00.768Z,20.95
2018-05-07T08:11:01.489Z,21.02
2018-05-07T08:12:02.291Z,21.05
2018-05-07T08:13:02.930Z,21.02
2018-05-07T08:14:03.651Z,20.97
2018-05-07T08:15:04.374Z,20.95
2018-05-07T08:16:05.106Z,20.59
2018-05-07T08:17:05.834Z,20.59
2018-05-07T08:18:06.552Z,20.87
2018-05-07T08:19:07.273Z,21.00
2018-05-07T08:20:07.998Z,21.18
2018-05-07T08:21:08.722Z,21.33
2018-05-07T08:22:09.446Z,21.09
2018-05-07T08:23:10.180Z,20.97
2018-05-07T08:24:10.896Z,20.69
2018-05-07T08:25:11.621Z,20.87
2018-05-07T08:26:12.343Z,21.05
2018-05-07T08:27:13.071Z,21.09
2018-05-07T08:28:13.803Z,21.03
2018-05-07T08:29:14.550Z,21.15
2018-05-07T08:30:15.281Z,21.25
2018-05-07T08:31:16.013Z,21.24
2018-05-07T08:32:16.746Z,21.37
2018-05-07T08:33:17.480Z,21.54
2018-05-07T08:34:18.215Z,21.72
2018-05-07T08:35:18.951Z,21.75
2018-05-07T08:36:19.699Z,21.85
2018-05-07T08:37:20.432Z,21.83
2018-05-07T08:38:21.183Z,21.82
2018-05-07T08:39:21.924Z,21.85
2018-05-07T08:40:22.653Z,21.69
2018-05-07T08:41:23.401Z,21.79
2018-05-07T08:42:24.187Z,21.60
2018-05-07T08:43:24.876Z,21.27
2018-05-07T08:44:25.610Z,21.32
2018-05-07T08:45:26.347Z,21.33
2018-05-07T08:46:27.082Z,21.21
2018-05-07T08:47:27.828Z,21.39
2018-05-07T08:48:28.559Z,21.46
2018-05-07T08:49:29.306Z,21.42
2018-05-07T08:50:30.051Z,21.73
2018-05-07T08:51:30.779Z,21.75
2018-05-07T08:52:31.510Z,21.69
2018-05-07T08:53:32.241Z,21.83
2018-05-07T08:54:32.977Z,21.98
2018-05-07T08:55:33.725Z,22.08
2018-05-07T08:56:34.461Z,21.87
2018-05-07T08:57:35.189Z,21.82
2018-05-07T08:58:35.922Z,21.85
2018-05-07T08:59:36.667Z,22.20
2018-05-07T09:00:37.403Z,22.18
2018-05-07T09:01:38.148Z,22.41
2018-05-07T09:02:38.882Z,22.28
2018-05-07T09:03:39.615Z,22.48
2018-05-07T09:04:40.348Z,22.65
2018-05-07T09:05:41.082Z,22.59
2018-05-07T09:06:41.815Z,22.63
2018-05-07T09:07:42.551Z,22.83
2018-05-07T09:08:43.285Z,22.93
2018-05-07T09:09:44.021Z,22.63
2018-05-07T09:10:44.755Z,22.38
2018-05-07T09:11:45.489Z,22.60
2018-05-07T09:12:46.224Z,22.48
2018-05-07T09:13:46.961Z,22.51
2018-05-07T09:14:47.703Z,22.18
2018-05-07T09:15:48.441Z,22.33
2018-05-07T09:16:49.173Z,22.38
2018-05-07T09:17:49.911Z,22.23
2018-05-07T09:18:50.710Z,22.32
2018-05-07T09:19:51.447Z,22.28
2018-05-07T09:20:52.181Z,22.33
2018-05-07T09:21:52.929Z,22.60
2018-05-07T09:22:53.663Z,22.90
2018-05-07T09:23:54.397Z,23.15
2018-05-07T09:24:55.132Z,23.47
2018-05-07T09:25:55.882Z,23.65
2018-05-07T09:26:56.620Z,23.48
2018-05-07T09:27:57.354Z,23.63
2018-05-07T09:28:58.088Z,23.81
2018-05-07T09:29:58.827Z,23.77
2018-05-07T09:30:59.565Z,23.91
2018-05-07T09:32:00.319Z,24.03
2018-05-07T09:33:01.058Z,24.06
2018-05-07T09:34:01.811Z,24.24
2018-05-07T09:35:02.565Z,24.43
2018-05-07T09:36:03.307Z,24.57
2018-05-07T09:37:04.079Z,24.77
2018-05-07T09:38:04.802Z,24.17
2018-05-07T09:39:05.551Z,24.38
2018-05-07T09:40:06.353Z,24.24
2018-05-07T09:41:07.107Z,24.18
2018-05-07T09:42:07.858Z,24.29
2018-05-07T09:43:08.613Z,24.60
2018-05-07T09:44:09.345Z,24.88
2018-05-07T09:45:10.102Z,25.26
2018-05-07T09:46:10.842Z,25.50
2018-05-07T09:47:11.585Z,25.60
2018-05-07T09:48:12.374Z,25.23
2018-05-07T09:49:13.073Z,24.84
2018-05-07T09:50:13.815Z,24.89
2018-05-07T09:51:14.560Z,24.47
2018-05-07T09:52:15.313Z,25.10
2018-05-07T09:53:16.057Z,25.11
2018-05-07T09:54:16.800Z,25.10
2018-05-07T09:55:17.543Z,25.32
2018-05-07T09:56:18.336Z,25.40
2018-05-07T09:57:19.079Z,26.03
2018-05-07T09:58:19.824Z,26.56
2018-05-07T09:59:20.572Z,26.65
2018-05-07T10:00:21.310Z,26.99
2018-05-07T10:01:22.054Z,27.10
2018-05-07T10:02:22.820Z,27.45
2018-05-07T10:03:23.557Z,27.37
2018-05-07T10:04:24.294Z,27.52
2018-05-07T10:05:25.035Z,27.63
2018-05-07T10:06:25.777Z,27.54
2018-05-07T10:07:26.531Z,27.48
2018-05-07T10:08:27.280Z,27.51
2018-05-07T10:09:28.012Z,28.07
2018-05-07T10:10:28.763Z,28.41
2018-05-07T10:11:29.505Z,28.39
2018-05-07T10:12:30.260Z,28.20
2018-05-07T10:13:31.000Z,28.64
2018-05-07T10:14:31.741Z,28.27
2018-05-07T10:15:32.529Z,28.48
2018-05-07T10:16:33.241Z,28.20
2018-05-07T10:17:33.985Z,27.89
2018-05-07T10:18:34.731Z,27.90
2018-05-07T10:19:35.472Z,28.05
2018-05-07T10:20:36.215Z,27.64
2018-05-07T10:21:36.960Z,27.52
2018-05-07T10:22:37.755Z,27.21
2018-05-07T10:23:38.597Z,26.96
2018-05-07T10:24:39.258Z,27.45
2018-05-07T10:25:40.011Z,27.64
2018-05-07T10:26:40.753Z,28.02
2018-05-07T10:27:41.501Z,28.62
2018-05-07T10:28:42.235Z,29.14
2018-05-07T10:29:42.992Z,29.38
2018-05-07T10:30:43.720Z,29.65
2018-05-07T10:31:44.458Z,28.89
2018-05-07T10:32:45.200Z,29.41
2018-05-07T10:33:45.937Z,29.90
2018-05-07T10:34:46.676Z,29.54
2018-05-07T10:35:47.427Z,29.16
2018-05-07T10:36:48.166Z,28.76
2018-05-07T10:37:48.918Z,28.86
2018-05-07T10:38:49.699Z,28.57
2018-05-07T10:39:50.401Z,28.76
2018-05-07T10:40:51.135Z,28.78
2018-05-07T10:41:51.875Z,28.64
2018-05-07T10:42:52.618Z,28.91
2018-05-07T10:43:53.368Z,29.36
2018-05-07T10:44:54.108Z,29.60
2018-05-07T10:45:54.846Z,30.08
2018-05-07T10:46:55.583Z,29.16
2018-05-07T10:47:56.321Z,27.15
2018-05-07T10:48:57.078Z,27.75
2018-05-07T10:49:57.818Z,27.03
2018-05-07T10:50:58.556Z,27.49
2018-05-07T10:51:59.298Z,27.65
2018-05-07T10:53:00.043Z,27.77
2018-05-07T10:54:00.788Z,27.18
2018-05-07T10:55:01.530Z,27.03
2018-05-07T10:56:02.350Z,27.74
2018-05-07T10:57:03.089Z,28.10
2018-05-07T10:58:03.834Z,28.47
2018-05-07T10:59:04.567Z,28.45
2018-05-07T11:00:05.308Z,28.38
2018-05-07T11:01:06.050Z,28.37
2018-05-07T11:02:06.786Z,28.08
2018-05-07T11:03:07.537Z,28.02
2018-05-07T11:04:08.271Z,28.57
2018-05-07T11:05:09.005Z,28.20
2018-05-07T11:06:09.738Z,28.54
2018-05-07T11:07:10.563Z,28.63
2018-05-07T11:08:11.228Z,28.45
2018-05-07T11:09:11.964Z,28.60
2018-05-07T11:10:12.705Z,29.22
2018-05-07T11:11:13.455Z,29.19
2018-05-07T11:12:14.190Z,29.66
2018-05-07T11:13:14.929Z,29.75
2018-05-07T11:14:15.685Z,29.32
2018-05-07T11:15:16.429Z,29.13
2018-05-07T11:16:17.164Z,28.04
2018-05-07T11:17:17.909Z,28.05
2018-05-07T11:18:18.646Z,28.60
2018-05-07T11:19:19.384Z,28.64
2018-05-07T11:20:20.116Z,27.54
2018-05-07T11:21:20.851Z,27.82
2018-05-07T11:22:21.584Z,28.02
2018-05-07T11:23:22.315Z,28.14
2018-05-07T11:24:23.062Z,28.10
2018-05-07T11:25:23.794Z,27.73
2018-05-07T11:26:24.523Z,27.80
2018-05-07T11:27:25.252Z,27.83
2018-05-07T11:28:25.982Z,27.30
2018-05-07T11:29:26.721Z,27.82
2018-05-07T11:30:27.448Z,27.95
2018-05-07T11:31:28.176Z,28.20
2018-05-07T11:32:28.918Z,27.80
2018-05-07T11:33:29.648Z,27.25
2018-05-07T11:34:30.375Z,27.17
2018-05-07T11:35:31.105Z,27.03
2018-05-07T11:36:31.846Z,27.42
2018-05-07T11:37:32.585Z,27.14
2018-05-07T11:38:33.313Z,27.35
2018-05-07T11:39:34.055Z,28.02
2018-05-07T11:40:34.793Z,28.54
2018-05-07T11:41:35.520Z,28.26
2018-05-07T11:42:36.247Z,28.42
2018-05-07T11:43:36.987Z,28.59
2018-05-07T11:44:37.727Z,28.72
2018-05-07T11:45:38.452Z,27.60
2018-05-07T11:46:39.179Z,28.17
2018-05-07T11:47:40.024Z,28.56
2018-05-07T11:48:40.634Z,28.93
2018-05-07T11:49:41.359Z,29.23
2018-05-07T11:50:42.088Z,29.22
2018-05-07T11:51:42.822Z,29.54
2018-05-07T11:52:43.547Z,29.98
2018-05-07T11:53:44.272Z,30.18
2018-05-07T11:54:44.997Z,30.00
2018-05-07T11:55:45.736Z,29.60
2018-05-07T11:56:46.461Z,29.63
2018-05-07T11:57:47.200Z,29.22
2018-05-07T11:58:47.925Z,28.79
2018-05-07T11:59:48.651Z,28.96
2018-05-07T12:00:49.378Z,29.27
2018-05-07T12:01:50.104Z,29.45
2018-05-07T12:02:50.870Z,29.54
2018-05-07T12:03:51.554Z,29.50
2018-05-07T12:04:52.279Z,28.67
2018-05-07T12:05:53.017Z,27.98
2018-05-07T12:06:53.745Z,28.00
2018-05-07T12:07:54.472Z,28.05
2018-05-07T12:08:55.209Z,28.11
2018-05-07T12:09:55.922Z,28.32
2018-05-07T12:10:56.648Z,28.45
2018-05-07T12:11:57.378Z,27.92
2018-05-07T12:12:58.101Z,27.93
2018-05-07T12:13:58.837Z,28.14
2018-05-07T12:14:59.562Z,28.20
2018-05-07T12:16:00.380Z,27.90
2018-05-07T12:17:01.037Z,27.48
2018-05-07T12:18:01.754Z,27.15
2018-05-07T12:19:02.483Z,27.32
2018-05-07T12:20:03.207Z,27.42
2018-05-07T12:21:03.931Z,27.59
2018-05-07T12:22:04.655Z,27.35
2018-05-07T12:23:05.379Z,27.10
2018-05-07T12:24:06.105Z,26.89
2018-05-07T12:25:06.829Z,27.02
2018-05-07T12:26:07.552Z,26.90
2018-05-07T12:27:08.275Z,27.11
2018-05-07T12:28:09.014Z,27.29
2018-05-07T12:29:09.751Z,27.51
2018-05-07T12:30:10.476Z,27.74
2018-05-07T12:31:11.265Z,27.74
2018-05-07T12:32:11.925Z,27.74
2018-05-07T12:33:12.666Z,27.77
2018-05-07T12:34:13.387Z,27.49
2018-05-07T12:35:14.125Z,27.65
2018-05-07T12:36:14.853Z,27.59
2018-05-07T12:37:15.577Z,27.29
2018-05-07T12:38:16.301Z,27.14
2018-05-07T12:39:17.026Z,27.21
2018-05-07T12:40:17.751Z,27.42
2018-05-07T12:41:18.474Z,27.12
2018-05-07T12:42:19.198Z,27.39
2018-05-07T12:43:19.928Z,27.49
2018-05-07T12:44:20.648Z,27.26
2018-05-07T12:45:21.371Z,27.54
2018-05-07T12:46:22.096Z,27.44
2018-05-07T12:47:22.822Z,27.32
2018-05-07T12:48:23.547Z,27.30
2018-05-07T12:49:24.273Z,27.37
2018-05-07T12:50:24.992Z,27.63
2018-05-07T12:51:25.729Z,27.49
2018-05-07T12:52:26.484Z,27.60
2018-05-07T12:53:27.192Z,27.65
2018-05-07T12:54:27.918Z,27.80
2018-05-07T12:55:28.638Z,28.02
2018-05-07T12:56:29.361Z,28.07
2018-05-07T12:57:30.087Z,28.05
2018-05-07T12:58:30.812Z,28.10
2018-05-07T12:59:31.540Z,27.90
2018-05-07T13:00:32.260Z,27.86
2018-05-07T13:01:32.998Z,27.71